< < Back
Terminal Aerodrome Forecast


Current Version              Previous Versions:   1  2  3  4  5  6  7  8  9  

Terminal Aerodrome Forecast

495
FTUS44 KBMX 271735 CCA
TAFBHM
TAF COR
KBHM 271735Z 2718/2818 18008G16KT P6SM SCT050 BKN250
     FM280000 16006KT P6SM BKN250=



Latest METAR

089
SAUS70 KWBC 282000 RRJ
MTRBHM
METAR KBHM 281953Z 18003KT 10SM FEW040 BKN200 26/18 A3012 RMK AO2 SLP190
T02610183


USA.gov is the U.S. government's official web portal to all federal, state and local government web resources and services.